createdAt,value
2022-11-13T00:00:34.377Z,15.80
2022-11-13T00:03:02.282Z,15.43
2022-11-13T00:05:30.161Z,15.90
2022-11-13T00:07:59.355Z,16.75
2022-11-13T00:10:27.243Z,16.13
2022-11-13T00:12:55.994Z,17.85
2022-11-13T00:15:24.098Z,17.25
2022-11-13T00:17:52.017Z,17.13
2022-11-13T00:20:20.404Z,19.13
2022-11-13T00:22:48.382Z,21.38
2022-11-13T00:25:17.722Z,18.35
2022-11-13T00:27:45.626Z,17.52
2022-11-13T00:30:19.039Z,17.42
2022-11-13T00:32:47.548Z,17.90
2022-11-13T00:35:15.585Z,17.60
2022-11-13T00:37:43.494Z,17.33
2022-11-13T00:40:12.185Z,15.70
2022-11-13T00:42:41.426Z,14.45
2022-11-13T00:45:09.820Z,15.25
2022-11-13T00:47:37.737Z,15.25
2022-11-13T00:50:06.337Z,16.13
2022-11-13T00:52:34.276Z,15.27
2022-11-13T00:55:03.341Z,16.55
2022-11-13T00:57:31.232Z,15.95
2022-11-13T01:00:00.523Z,15.32
2022-11-13T01:02:28.426Z,15.52
2022-11-13T01:04:56.489Z,14.80
2022-11-13T01:07:24.449Z,12.75
2022-11-13T01:09:52.761Z,12.30
2022-11-13T01:12:20.694Z,11.68
2022-11-13T01:14:48.684Z,11.13
2022-11-13T01:17:18.056Z,10.30
2022-11-13T01:19:45.976Z,10.98
2022-11-13T01:22:14.027Z,10.65
2022-11-13T01:24:41.907Z,10.18
2022-11-13T01:27:09.851Z,9.88
2022-11-13T01:29:39.211Z,8.95
2022-11-13T01:32:07.155Z,9.98
2022-11-13T01:34:36.705Z,11.27
2022-11-13T01:37:04.635Z,10.65
2022-11-13T01:39:32.820Z,9.55
2022-11-13T01:42:01.367Z,10.48
2022-11-13T01:44:48.493Z,11.43
2022-11-13T01:47:17.559Z,14.10
2022-11-13T01:49:47.690Z,15.20
2022-11-13T01:52:19.102Z,13.57
2022-11-13T01:54:50.514Z,14.18
2022-11-13T01:57:18.506Z,14.70
2022-11-13T01:59:50.771Z,13.93
2022-11-13T02:02:18.645Z,12.68
2022-11-13T02:04:48.288Z,14.73
2022-11-13T02:07:17.826Z,13.40
2022-11-13T02:09:49.199Z,14.40
2022-11-13T02:12:22.378Z,12.82
2022-11-13T02:14:53.605Z,13.27
2022-11-13T02:17:26.417Z,12.45
2022-11-13T02:19:59.769Z,11.95
2022-11-13T02:22:33.843Z,10.80
2022-11-13T02:25:04.938Z,11.18
2022-11-13T02:27:38.005Z,11.52
2022-11-13T02:30:16.249Z,12.10
2022-11-13T02:32:45.385Z,11.70
2022-11-13T02:35:14.355Z,11.75
2022-11-13T02:37:42.443Z,11.77
2022-11-13T02:40:13.013Z,10.85
2022-11-13T02:42:41.098Z,11.30
2022-11-13T02:45:09.672Z,12.73
2022-11-13T02:47:37.936Z,11.65
2022-11-13T02:50:07.647Z,11.55
2022-11-13T02:52:35.650Z,11.45
2022-11-13T02:55:03.697Z,10.80
2022-11-13T02:57:33.516Z,11.52
2022-11-13T03:00:01.634Z,11.75
2022-11-13T03:02:29.730Z,10.65
2022-11-13T03:05:13.972Z,10.32
2022-11-13T03:07:43.473Z,10.02
2022-11-13T03:10:12.322Z,11.05
2022-11-13T03:12:41.704Z,10.93
2022-11-13T03:15:10.850Z,10.77
2022-11-13T03:17:38.741Z,12.20
2022-11-13T03:20:07.807Z,13.30
2022-11-13T03:22:35.703Z,12.93
2022-11-13T03:25:07.529Z,11.55
2022-11-13T03:27:38.289Z,10.90
2022-11-13T03:30:09.068Z,11.43
2022-11-13T03:32:36.988Z,12.35
2022-11-13T03:35:05.732Z,11.88
2022-11-13T03:37:33.647Z,12.57
2022-11-13T03:40:01.535Z,12.95
2022-11-13T03:42:29.434Z,12.55
2022-11-13T03:44:57.377Z,10.98
2022-11-13T03:47:26.598Z,11.75
2022-11-13T03:49:54.502Z,10.85
2022-11-13T03:52:22.450Z,11.13
2022-11-13T03:54:50.416Z,10.93
2022-11-13T03:57:18.332Z,10.95
2022-11-13T03:59:46.245Z,9.25
2022-11-13T04:02:14.117Z,9.23
2022-11-13T04:04:44.601Z,8.70
2022-11-13T04:07:12.572Z,8.32
2022-11-13T04:09:40.547Z,8.30
2022-11-13T04:12:08.480Z,9.80
2022-11-13T04:14:36.417Z,8.80
2022-11-13T04:17:04.383Z,9.27
2022-11-13T04:19:32.269Z,8.82
2022-11-13T04:22:01.489Z,8.43
2022-11-13T04:24:29.410Z,8.60
2022-11-13T04:26:58.099Z,8.25
2022-11-13T04:29:25.992Z,8.13
2022-11-13T04:31:53.934Z,7.82
2022-11-13T04:34:21.848Z,8.85
2022-11-13T04:36:49.870Z,8.75
2022-11-13T04:39:19.163Z,8.90
2022-11-13T04:42:04.569Z,9.32
2022-11-13T04:44:32.461Z,8.15
2022-11-13T04:47:00.381Z,7.57
2022-11-13T04:49:28.291Z,8.65
2022-11-13T04:51:56.221Z,8.75
2022-11-13T04:54:28.677Z,8.88
2022-11-13T04:56:56.999Z,7.50
2022-11-13T04:59:25.039Z,8.65
2022-11-13T05:01:53.224Z,7.97
2022-11-13T05:04:21.237Z,7.80
2022-11-13T05:06:49.333Z,9.23
2022-11-13T05:09:17.325Z,8.82
2022-11-13T05:11:46.605Z,8.80
2022-11-13T05:14:14.929Z,8.88
2022-11-13T05:16:42.824Z,8.90
2022-11-13T05:19:10.749Z,8.85
2022-11-13T05:21:40.112Z,7.80
2022-11-13T05:24:10.637Z,8.93
2022-11-13T05:26:39.061Z,8.10
2022-11-13T05:29:08.435Z,7.80
2022-11-13T05:31:36.614Z,7.43
2022-11-13T05:34:06.081Z,7.40
2022-11-13T05:36:34.232Z,7.72
2022-11-13T05:39:02.101Z,7.88
2022-11-13T05:41:31.082Z,7.30
2022-11-13T05:43:59.754Z,8.75
2022-11-13T05:46:30.405Z,7.85
2022-11-13T05:49:00.158Z,8.07
2022-11-13T05:51:29.778Z,7.70
2022-11-13T05:53:57.812Z,7.65
2022-11-13T05:56:27.400Z,8.15
2022-11-13T05:58:56.193Z,10.57
2022-11-13T06:01:27.188Z,9.32
2022-11-13T06:03:58.072Z,8.32
2022-11-13T06:06:27.186Z,9.73
2022-11-13T06:08:56.978Z,11.32
2022-11-13T06:11:26.572Z,10.48
2022-11-13T06:13:55.539Z,10.68
2022-11-13T06:16:26.126Z,11.50
2022-11-13T06:18:58.351Z,11.48
2022-11-13T06:21:28.135Z,11.63
2022-11-13T06:23:56.070Z,11.88
2022-11-13T06:26:26.524Z,11.00
2022-11-13T06:28:54.852Z,15.95
2022-11-13T06:31:24.834Z,15.77
2022-11-13T06:33:53.134Z,12.75
2022-11-13T06:36:23.942Z,19.70
2022-11-13T06:38:52.151Z,13.00
2022-11-13T06:41:22.073Z,14.60
2022-11-13T06:43:50.520Z,12.40
2022-11-13T06:46:20.527Z,16.50
2022-11-13T06:48:48.829Z,16.58
2022-11-13T06:51:18.396Z,12.05
2022-11-13T06:53:47.701Z,14.23
2022-11-13T06:56:16.579Z,13.15
2022-11-13T06:58:44.784Z,12.82
2022-11-13T07:01:14.674Z,11.25
2022-11-13T07:03:43.747Z,11.15
2022-11-13T07:06:14.866Z,12.20
2022-11-13T07:08:43.267Z,11.05
2022-11-13T07:11:14.456Z,11.57
2022-11-13T07:13:42.909Z,11.73
2022-11-13T07:16:19.582Z,11.35
2022-11-13T07:18:51.754Z,9.88
2022-11-13T07:21:20.444Z,9.77
2022-11-13T07:23:49.246Z,10.43
2022-11-13T07:26:19.342Z,10.80
2022-11-13T07:28:47.805Z,11.18
2022-11-13T07:31:17.430Z,11.05
2022-11-13T07:33:45.833Z,9.90
2022-11-13T07:36:13.706Z,9.50
2022-11-13T07:38:41.620Z,9.50
2022-11-13T07:41:09.573Z,10.02
2022-11-13T07:43:38.863Z,8.43
2022-11-13T07:46:07.080Z,9.23
2022-11-13T07:48:34.982Z,10.00
2022-11-13T07:51:03.788Z,10.00
2022-11-13T07:53:31.761Z,11.38
2022-11-13T07:56:02.104Z,9.85
2022-11-13T07:58:30.527Z,11.18
2022-11-13T08:01:05.010Z,10.68
2022-11-13T08:03:33.342Z,12.55
2022-11-13T08:06:02.797Z,10.98
2022-11-13T08:08:31.124Z,11.35
2022-11-13T08:10:59.563Z,12.80
2022-11-13T08:13:27.571Z,13.23
2022-11-13T08:15:55.509Z,12.02
2022-11-13T08:18:24.838Z,13.07
2022-11-13T08:20:53.031Z,12.38
2022-11-13T08:23:21.360Z,11.80
2022-11-13T08:25:49.282Z,12.45
2022-11-13T08:28:17.175Z,12.45
2022-11-13T08:30:45.955Z,12.93
2022-11-13T08:33:13.889Z,12.23
2022-11-13T08:35:43.149Z,11.05
2022-11-13T08:38:11.020Z,12.15
2022-11-13T08:40:38.954Z,11.93
2022-11-13T08:43:06.837Z,11.27
2022-11-13T08:45:34.738Z,11.85
2022-11-13T08:48:03.273Z,12.45
2022-11-13T08:50:32.653Z,11.25
2022-11-13T08:53:03.058Z,13.80
2022-11-13T08:55:30.961Z,12.10
2022-11-13T08:57:59.952Z,12.52
2022-11-13T09:00:28.414Z,11.75
2022-11-13T09:02:57.130Z,11.80
2022-11-13T09:05:25.637Z,10.52
2022-11-13T09:07:57.398Z,11.48
2022-11-13T09:10:27.302Z,11.38
2022-11-13T09:12:59.196Z,11.82
2022-11-13T09:15:27.136Z,11.20
2022-11-13T09:17:57.930Z,10.60
2022-11-13T09:20:25.910Z,10.32
2022-11-13T09:23:00.636Z,10.45
2022-11-13T09:25:37.229Z,11.02
2022-11-13T09:28:07.205Z,10.18
2022-11-13T09:30:35.099Z,11.30
2022-11-13T09:33:03.689Z,10.35
2022-11-13T09:35:35.404Z,10.88
2022-11-13T09:38:10.414Z,10.70
2022-11-13T09:40:45.680Z,10.65
2022-11-13T09:43:25.354Z,8.02
2022-11-13T09:45:58.044Z,8.05
2022-11-13T09:48:32.095Z,8.63
2022-11-13T09:51:05.108Z,8.07
2022-11-13T09:53:38.095Z,7.60
2022-11-13T09:56:20.096Z,7.15
2022-11-13T09:58:52.807Z,6.90
2022-11-13T10:01:27.596Z,7.97
2022-11-13T10:04:02.693Z,6.97
2022-11-13T10:06:41.415Z,6.75
2022-11-13T10:09:20.475Z,7.05
2022-11-13T10:11:54.440Z,6.00
2022-11-13T10:14:27.679Z,7.00
2022-11-13T10:17:00.039Z,6.72
2022-11-13T10:19:35.451Z,6.78
2022-11-13T10:22:31.486Z,6.53
2022-11-13T10:25:03.937Z,6.93
2022-11-13T10:27:33.222Z,6.93
2022-11-13T10:30:01.227Z,6.38
2022-11-13T10:32:33.406Z,6.75
2022-11-13T10:35:09.850Z,6.78
2022-11-13T10:37:49.834Z,6.93
2022-11-13T10:40:25.516Z,7.25
2022-11-13T10:42:54.938Z,6.60
2022-11-13T10:45:23.505Z,6.03
2022-11-13T10:48:07.964Z,6.90
2022-11-13T10:50:36.244Z,6.45
2022-11-13T10:53:04.193Z,7.20
2022-11-13T10:55:40.560Z,7.25
2022-11-13T10:58:16.288Z,7.32
2022-11-13T11:00:48.906Z,7.18
2022-11-13T11:03:19.275Z,6.75
2022-11-13T11:05:58.001Z,7.50
2022-11-13T11:08:32.037Z,7.30
2022-11-13T11:11:19.809Z,7.03
2022-11-13T11:13:49.738Z,6.72
2022-11-13T11:16:22.483Z,6.65
2022-11-13T11:18:56.830Z,6.15
2022-11-13T11:21:30.156Z,6.60
2022-11-13T11:24:02.503Z,6.10
2022-11-13T11:26:34.622Z,6.38
2022-11-13T11:29:14.046Z,6.15
2022-11-13T11:31:50.257Z,6.43
2022-11-13T11:34:23.258Z,6.50
2022-11-13T11:36:58.974Z,6.80
2022-11-13T11:39:33.589Z,6.13
2022-11-13T11:42:16.428Z,6.95
2022-11-13T11:44:59.156Z,6.88
2022-11-13T11:47:27.254Z,6.60
2022-11-13T11:49:56.577Z,7.05
2022-11-13T11:52:54.536Z,6.28
2022-11-13T11:55:39.325Z,6.55
2022-11-13T11:58:17.731Z,5.88
2022-11-13T12:00:51.156Z,6.88
2022-11-13T12:03:50.102Z,7.40
2022-11-13T12:06:28.280Z,5.90
2022-11-13T12:11:30.688Z,6.32
2022-11-13T12:14:09.857Z,6.55
2022-11-13T12:16:45.492Z,6.38
2022-11-13T12:19:31.191Z,5.10
2022-11-13T12:22:09.531Z,6.07
2022-11-13T12:24:57.505Z,4.95
2022-11-13T12:27:31.873Z,5.38
2022-11-13T12:30:10.305Z,5.40
2022-11-13T12:32:59.372Z,5.05
2022-11-13T12:35:28.780Z,5.07
2022-11-13T12:38:01.579Z,5.10
2022-11-13T12:40:35.836Z,4.88
2022-11-13T12:43:23.056Z,4.43
2022-11-13T12:45:53.497Z,4.93
2022-11-13T12:48:40.801Z,4.93
2022-11-13T12:51:11.248Z,4.78
2022-11-13T12:53:48.316Z,4.63
2022-11-13T12:56:29.785Z,4.33
2022-11-13T12:59:29.174Z,4.57
2022-11-13T13:01:52.906Z,4.50
2022-11-13T13:04:43.919Z,4.35
2022-11-13T13:07:23.911Z,3.97
2022-11-13T13:10:07.042Z,3.95
2022-11-13T13:12:45.401Z,4.25
2022-11-13T13:15:34.079Z,4.47
2022-11-13T13:20:38.245Z,4.75
2022-11-13T13:23:08.737Z,4.80
2022-11-13T13:25:37.708Z,4.72
2022-11-13T13:28:21.413Z,4.68
2022-11-13T13:30:57.304Z,4.63
2022-11-13T13:33:36.715Z,4.40
2022-11-13T13:36:16.739Z,5.10
2022-11-13T13:38:52.438Z,4.78
2022-11-13T13:41:34.901Z,4.53
2022-11-13T13:44:19.963Z,5.32
2022-11-13T13:46:48.032Z,4.57
2022-11-13T13:49:18.092Z,4.75
2022-11-13T13:51:50.635Z,5.00
2022-11-13T13:54:21.739Z,5.65
2022-11-13T13:56:49.958Z,5.13
2022-11-13T13:59:20.995Z,5.30
2022-11-13T14:01:56.024Z,4.78
2022-11-13T14:04:25.926Z,5.53
2022-11-13T14:06:57.194Z,5.43
2022-11-13T14:09:27.225Z,5.13
2022-11-13T14:12:00.686Z,5.03
2022-11-13T14:14:30.068Z,4.93
2022-11-13T14:17:00.441Z,4.85
2022-11-13T14:19:28.720Z,5.63
2022-11-13T14:22:00.661Z,5.15
2022-11-13T14:24:34.642Z,5.45
2022-11-13T14:27:05.788Z,4.63
2022-11-13T14:29:38.647Z,5.90
2022-11-13T14:32:11.006Z,5.05
2022-11-13T14:34:43.484Z,5.15
2022-11-13T14:37:23.212Z,5.28
2022-11-13T14:39:52.341Z,6.00
2022-11-13T14:42:22.542Z,5.07
2022-11-13T14:44:50.519Z,6.03
2022-11-13T14:47:24.125Z,5.72
2022-11-13T14:49:52.026Z,5.47
2022-11-13T14:52:27.253Z,6.00
2022-11-13T14:55:15.544Z,6.22
2022-11-13T14:57:49.028Z,6.50
2022-11-13T15:00:18.429Z,6.40
2022-11-13T15:02:46.378Z,6.07
2022-11-13T15:05:14.378Z,6.10
2022-11-13T15:07:45.545Z,6.97
2022-11-13T15:10:15.624Z,7.68
2022-11-13T15:12:44.097Z,7.53
2022-11-13T15:15:16.383Z,6.80
2022-11-13T15:17:45.000Z,7.28
2022-11-13T15:20:17.147Z,7.55
2022-11-13T15:22:46.623Z,6.25
2022-11-13T15:25:15.932Z,7.13
2022-11-13T15:27:44.106Z,7.63
2022-11-13T15:30:13.101Z,8.07
2022-11-13T15:32:41.559Z,7.93
2022-11-13T15:35:16.916Z,7.85
2022-11-13T15:37:46.218Z,8.48
2022-11-13T15:40:14.570Z,8.35
2022-11-13T15:42:43.672Z,7.25
2022-11-13T15:45:15.739Z,8.20
2022-11-13T15:47:43.984Z,7.80
2022-11-13T15:50:14.474Z,8.07
2022-11-13T15:52:47.246Z,8.48
2022-11-13T15:55:21.935Z,7.93
2022-11-13T15:57:50.193Z,9.50
2022-11-13T16:00:21.235Z,7.93
2022-11-13T16:02:50.617Z,8.40
2022-11-13T16:05:18.810Z,9.43
2022-11-13T16:07:48.005Z,9.60
2022-11-13T16:10:17.167Z,8.85
2022-11-13T16:12:45.811Z,9.60
2022-11-13T16:15:16.632Z,10.60
2022-11-13T16:17:47.733Z,12.07
2022-11-13T16:20:17.655Z,11.07
2022-11-13T16:22:47.457Z,11.00
2022-11-13T16:25:17.282Z,10.73
2022-11-13T16:27:46.109Z,9.88
2022-11-13T16:30:20.175Z,11.45
2022-11-13T16:32:48.537Z,11.00
2022-11-13T16:35:18.017Z,10.57
2022-11-13T16:37:47.334Z,11.00
2022-11-13T16:40:21.693Z,10.88
2022-11-13T16:42:49.783Z,10.88
2022-11-13T16:45:17.726Z,12.27
2022-11-13T16:47:46.480Z,11.52
2022-11-13T16:50:16.459Z,10.88
2022-11-13T16:52:44.368Z,11.13
2022-11-13T16:55:13.667Z,10.80
2022-11-13T16:57:41.606Z,10.35
2022-11-13T17:00:14.016Z,9.98
2022-11-13T17:02:41.980Z,11.57
2022-11-13T17:05:13.210Z,14.23
2022-11-13T17:07:41.183Z,14.02
2022-11-13T17:10:30.955Z,13.27
2022-11-13T17:13:00.189Z,12.40
2022-11-13T17:15:28.206Z,12.10
2022-11-13T17:17:58.504Z,13.70
2022-11-13T17:20:26.632Z,13.00
2022-11-13T17:22:54.696Z,12.98
2022-11-13T17:25:26.552Z,14.23
2022-11-13T17:27:54.952Z,15.57
2022-11-13T17:30:23.008Z,15.43
2022-11-13T17:32:51.087Z,22.00
2022-11-13T17:35:18.981Z,16.60
2022-11-13T17:37:46.917Z,15.30
2022-11-13T17:40:14.816Z,14.18
2022-11-13T17:42:44.168Z,15.82
2022-11-13T17:45:12.166Z,18.15
2022-11-13T17:47:40.215Z,18.77
2022-11-13T17:50:08.947Z,19.75
2022-11-13T17:52:36.843Z,20.33
2022-11-13T17:55:06.272Z,20.17
2022-11-13T17:57:34.459Z,21.38
2022-11-13T18:00:04.636Z,21.58
2022-11-13T18:02:34.053Z,19.67
2022-11-13T18:05:04.094Z,20.08
2022-11-13T18:07:32.397Z,21.80
2022-11-13T18:10:00.296Z,22.65
2022-11-13T18:12:28.690Z,24.27
2022-11-13T18:14:56.698Z,22.95
2022-11-13T18:17:26.171Z,23.83
2022-11-13T18:20:01.308Z,23.35
2022-11-13T18:22:30.062Z,22.38
2022-11-13T18:24:58.056Z,20.80
2022-11-13T18:27:25.938Z,22.17
2022-11-13T18:29:53.858Z,21.65
2022-11-13T18:32:22.175Z,22.48
2022-11-13T18:34:51.510Z,23.35
2022-11-13T18:37:19.420Z,22.90
2022-11-13T18:39:47.264Z,25.75
2022-11-13T18:42:15.168Z,27.20
2022-11-13T18:44:43.062Z,24.05
2022-11-13T18:47:10.960Z,25.33
2022-11-13T18:49:38.790Z,24.85
2022-11-13T18:52:08.152Z,26.48
2022-11-13T18:54:36.104Z,24.02
2022-11-13T18:57:04.135Z,23.77
2022-11-13T18:59:32.413Z,24.55
2022-11-13T19:02:00.445Z,23.45
2022-11-13T19:04:28.525Z,25.48
2022-11-13T19:06:57.271Z,24.85
2022-11-13T19:09:26.570Z,24.63
2022-11-13T19:11:55.480Z,26.45
2022-11-13T19:14:23.331Z,24.80
2022-11-13T19:16:51.289Z,25.23
2022-11-13T19:19:21.215Z,25.25
2022-11-13T19:21:49.976Z,25.80
2022-11-13T19:24:18.314Z,26.25
2022-11-13T19:26:47.535Z,25.80
2022-11-13T19:29:15.454Z,26.88
2022-11-13T19:31:44.597Z,26.65
2022-11-13T19:34:13.417Z,26.20
2022-11-13T19:36:41.510Z,26.70
2022-11-13T19:39:10.640Z,28.85
2022-11-13T19:41:38.778Z,25.55
2022-11-13T19:44:10.670Z,25.65
2022-11-13T19:46:38.614Z,25.98
2022-11-13T19:49:06.988Z,24.67
2022-11-13T19:51:34.885Z,22.92
2022-11-13T19:54:02.770Z,22.10
2022-11-13T19:56:30.676Z,22.00
2022-11-13T19:58:58.588Z,21.33
2022-11-13T20:01:29.074Z,21.90
2022-11-13T20:03:58.382Z,20.05
2022-11-13T20:06:27.717Z,22.85
2022-11-13T20:08:55.797Z,20.40
2022-11-13T20:11:23.688Z,18.30
2022-11-13T20:13:51.559Z,18.92
2022-11-13T20:16:23.302Z,16.92
2022-11-13T20:18:53.002Z,18.08
2022-11-13T20:21:25.293Z,19.50
2022-11-13T20:23:53.669Z,17.23
2022-11-13T20:26:21.642Z,17.98
2022-11-13T20:28:49.601Z,17.67
2022-11-13T20:31:20.383Z,16.73
2022-11-13T20:33:49.251Z,19.05
2022-11-13T20:36:19.211Z,17.25
2022-11-13T20:38:51.426Z,17.40
2022-11-13T20:41:20.789Z,17.15
2022-11-13T20:43:49.589Z,17.50
2022-11-13T20:46:20.367Z,17.73
2022-11-13T20:48:48.567Z,18.33
2022-11-13T20:51:19.866Z,17.92
2022-11-13T20:53:48.489Z,18.00
2022-11-13T20:56:17.492Z,16.67
2022-11-13T20:58:45.963Z,19.25
2022-11-13T21:01:15.102Z,18.67
2022-11-13T21:03:44.720Z,19.42
2022-11-13T21:06:15.852Z,17.25
2022-11-13T21:08:45.632Z,18.75
2022-11-13T21:11:15.762Z,18.90
2022-11-13T21:13:43.715Z,17.52
2022-11-13T21:16:12.429Z,19.05
2022-11-13T21:18:40.312Z,17.15
2022-11-13T21:21:10.132Z,18.40
2022-11-13T21:23:38.689Z,17.80
2022-11-13T21:26:09.965Z,18.08
2022-11-13T21:28:38.434Z,16.88
2022-11-13T21:31:08.814Z,17.13
2022-11-13T21:33:37.893Z,19.08
2022-11-13T21:36:07.062Z,16.98
2022-11-13T21:38:35.322Z,15.45
2022-11-13T21:41:23.031Z,15.40
2022-11-13T21:43:54.128Z,16.20
2022-11-13T21:46:23.741Z,13.48
2022-11-13T21:48:58.816Z,13.32
2022-11-13T21:51:26.981Z,14.60
2022-11-13T21:53:55.015Z,13.75
2022-11-13T21:56:23.359Z,14.10
2022-11-13T21:58:52.633Z,14.10
2022-11-13T22:01:23.116Z,14.55
2022-11-13T22:03:51.870Z,12.98
2022-11-13T22:06:21.994Z,13.98
2022-11-13T22:08:56.361Z,13.05
2022-11-13T22:11:24.976Z,12.73
2022-11-13T22:13:54.334Z,13.13
2022-11-13T22:16:23.500Z,12.50
2022-11-13T22:18:54.738Z,12.95
2022-11-13T22:21:23.969Z,12.40
2022-11-13T22:23:51.998Z,12.05
2022-11-13T22:26:21.269Z,12.38
2022-11-13T22:28:49.854Z,12.75
2022-11-13T22:31:21.205Z,13.38
2022-11-13T22:33:53.688Z,12.90
2022-11-13T22:36:24.592Z,11.95
2022-11-13T22:38:53.257Z,12.95
2022-11-13T22:41:24.136Z,13.20
2022-11-13T22:43:54.033Z,13.85
2022-11-13T22:46:25.144Z,13.32
2022-11-13T22:48:54.955Z,12.85
2022-11-13T22:51:24.794Z,12.98
2022-11-13T22:53:54.463Z,13.23
2022-11-13T22:56:23.803Z,13.77
2022-11-13T22:58:53.261Z,13.77
2022-11-13T23:01:24.755Z,14.77
2022-11-13T23:03:54.196Z,13.23
2022-11-13T23:06:24.581Z,14.75
2022-11-13T23:08:53.116Z,14.20
2022-11-13T23:11:23.919Z,15.07
2022-11-13T23:13:54.331Z,16.52
2022-11-13T23:16:25.205Z,14.30
2022-11-13T23:18:55.402Z,14.20
2022-11-13T23:21:25.096Z,14.10
2022-11-13T23:23:53.344Z,14.63
2022-11-13T23:26:22.333Z,13.93
2022-11-13T23:28:50.320Z,12.93
2022-11-13T23:31:18.294Z,14.43
2022-11-13T23:33:47.564Z,14.55
2022-11-13T23:36:17.959Z,16.05
2022-11-13T23:38:46.189Z,15.30
2022-11-13T23:41:14.302Z,15.20
2022-11-13T23:46:30.052Z,13.67
2022-11-13T23:48:59.408Z,15.45
2022-11-13T23:51:27.389Z,15.48
2022-11-13T23:53:55.255Z,15.93
2022-11-13T23:56:23.166Z,15.65
2022-11-13T23:58:53.264Z,14.10
